Andromeda Spirit — 3ELH2 — position and weather

sailwx.info

Track history (hours):
 
Tides and Currents Weather Stations Pressure Air Temp Water Temp Dewpoint Dewpoint Depression Visibility Wind Speed Wind Dir Waves Ship Positions

Andromeda Spirit

Last reported at 2018-Jan-05 18:23 UTC. Time now 2018-Jan-18 06:18 UTC.
Position N 01°26' E 103°13'.
Warning: this ship's position is 12 days out of date.

Length 180 m; draft 8.8 m.

Type: Cargo ship. MMSI: 372945000.

Date/timePositionNaut miles runAvg speedWind from/ knotsBaromVisibWave heightAir tempDewpointWater temp
2018-Jan-05 18:23N 01°26' E 103°13'612.4
2018-Jan-05 17:57N 01°22' E 103°16'512.1
2018-Jan-05 17:30N 01°18' E 103°20'612.1
2018-Jan-05 17:00N 01°14' E 103°25'612.5
2018-Jan-05 16:30N 01°13' E 103°31'713.6
2018-Jan-05 16:01N 01°12' E 103°38'3 6.2
2018-Jan-05 15:30N 01°13' E 103°41'510.4
2018-Jan-05 15:00N 01°16' E 103°45'1 1.9
2018-Jan-05 14:28N 01°17' E 103°45'0 0.0
2018-Jan-05 13:58N 01°17' E 103°45'0 0.0
2018-Jan-05 13:28N 01°17' E 103°45'0 0.0
2018-Jan-05 12:55N 01°17' E 103°45'0 0.0
2018-Jan-05 12:28N 01°17' E 103°45'0 0.0
2018-Jan-05 11:58N 01°17' E 103°45'0 0.0
2018-Jan-05 11:28N 01°17' E 103°45'0 0.0
2018-Jan-05 10:58N 01°17' E 103°45'0 0.0
2018-Jan-05 10:28N 01°17' E 103°45'0 0.0
2018-Jan-05 09:52N 01°17' E 103°45'0 0.0
2018-Jan-05 09:25N 01°17' E 103°45'0 0.0
2018-Jan-05 08:58N 01°17' E 103°45'0 0.0
2018-Jan-05 08:28N 01°17' E 103°45'0 0.0
2018-Jan-05 07:58N 01°17' E 103°45'0 0.0
2018-Jan-05 07:30N 01°17' E 103°45'0 0.0
2018-Jan-05 07:00N 01°17' E 103°45'1 1.6
2018-Jan-05 06:30N 01°16' E 103°45'510.2
2018-Jan-05 06:00N 01°13' E 103°49'5 9.9
2018-Jan-05 05:30N 01°14' E 103°54'2 3.3
2018-Jan-05 05:00N 01°14' E 103°55'2 4.7
2018-Jan-05 04:30N 01°15' E 103°58'3 6.4
2018-Jan-05 03:59N 01°16' E 104°01'3 7.0
2018-Jan-05 03:29N 01°16' E 104°04'  
2017-Dec-29 13:06N 32°58' E 132°10'317.8
2017-Dec-29 12:56N 33°01' E 132°09'1017.8
2017-Dec-29 12:22N 33°10' E 132°04'618.1
2017-Dec-29 12:01N 33°16' E 132°00'1018.6
2017-Dec-29 11:30N 33°24' E 131°55'918.1
2017-Dec-29 11:01N 33°32' E 131°51'917.9
2017-Dec-29 10:30N 33°40' E 131°45'815.7
2017-Dec-29 10:01N 33°46' E 131°39'816.8
2017-Dec-29 09:30N 33°47' E 131°29'816.0
2017-Dec-29 09:00N 33°48' E 131°19'815.5
2017-Dec-29 08:31N 33°49' E 131°10'611.8
2017-Dec-29 08:00N 33°49' E 131°03'3 5.0
2017-Dec-29 07:26N 33°47' E 131°01'0 0.0
2017-Dec-29 06:59N 33°47' E 131°01'0 0.0
2017-Dec-29 06:29N 33°47' E 131°01'0 0.0
2017-Dec-29 05:59N 33°47' E 131°01'0 0.0
2017-Dec-29 05:29N 33°47' E 131°01'0 0.0
2017-Dec-29 04:59N 33°47' E 131°01'0 0.0
2017-Dec-29 04:29N 33°47' E 131°01'0 0.0
2017-Dec-29 03:59N 33°47' E 131°01'0 0.0
2017-Dec-29 03:29N 33°47' E 131°01'0 0.0
2017-Dec-29 02:59N 33°47' E 131°01'0 0.0
2017-Dec-29 02:29N 33°47' E 131°01'0 0.0
2017-Dec-29 01:59N 33°47' E 131°01'0 0.0
2017-Dec-29 01:29N 33°47' E 131°01'0 0.0
2017-Dec-29 00:59N 33°47' E 131°01'0 0.0
2017-Dec-29 00:29N 33°47' E 131°01'0 0.0
2017-Dec-28 23:56N 33°47' E 131°01'0 0.0
2017-Dec-28 23:29N 33°47' E 131°01'0 0.0
2017-Dec-28 22:59N 33°47' E 131°01'0 0.0
2017-Dec-28 22:30N 33°47' E 131°01'0 1.0
2017-Dec-28 22:00N 33°47' E 131°01'5 9.2
2017-Dec-28 21:30N 33°49' E 131°05'4 8.7
2017-Dec-28 21:00N 33°50' E 131°11'611.8
2017-Dec-28 20:30N 33°51' E 131°18'611.9
2017-Dec-28 20:00N 33°50' E 131°25'612.5
2017-Dec-28 19:30N 33°49' E 131°32'613.0
2017-Dec-28 19:00N 33°47' E 131°40'611.7
2017-Dec-28 18:30N 33°43' E 131°45'612.8
2017-Dec-28 18:00N 33°38' E 131°49'713.4
2017-Dec-28 17:30N 33°32' E 131°52'714.1
2017-Dec-28 17:00N 33°25' E 131°56'715.0
2017-Dec-28 16:30N 33°19' E 132°00'814.8
2017-Dec-28 15:58N 33°12' E 132°06'32013.1
2017-Dec-27 15:28N 33°55' E 138°27'714.0
2017-Dec-27 15:00N 33°57' E 138°34'913.1
2017-Dec-27 14:20N 33°60' E 138°44'512.2
2017-Dec-27 13:57N 34°02' E 138°50'1711.6
2017-Dec-27 12:28N 34°07' E 139°09'511.2
2017-Dec-27 12:00N 34°09' E 139°15'713.9
2017-Dec-27 11:28N 34°16' E 139°20'715.5
2017-Dec-27 11:00N 34°22' E 139°23'815.9
2017-Dec-27 10:30N 34°30' E 139°26'713.9
2017-Dec-27 10:00N 34°36' E 139°29'714.4
2017-Dec-27 09:30N 34°43' E 139°32'715.0
2017-Dec-27 09:00N 34°50' E 139°36'815.7
2017-Dec-27 08:30N 34°57' E 139°39'815.8
2017-Dec-27 08:00N 35°04' E 139°43'714.3
2017-Dec-27 07:31N 35°11' E 139°45'510.2
2017-Dec-27 07:00N 35°17' E 139°45'612.6
2017-Dec-27 06:31N 35°22' E 139°42'5 9.5
2017-Dec-27 06:00N 35°27' E 139°41'0 0.3
2017-Dec-27 05:30N 35°27' E 139°41'0 0.0
2017-Dec-27 05:00N 35°27' E 139°41'0 0.0
2017-Dec-27 04:30N 35°27' E 139°41'0 0.0
2017-Dec-27 04:00N 35°27' E 139°41'0 0.0
2017-Dec-27 03:30N 35°27' E 139°41'0 0.0
2017-Dec-27 03:00N 35°27' E 139°41'0 0.0
2017-Dec-27 02:30N 35°27' E 139°41'0 0.0
2017-Dec-27 02:00N 35°27' E 139°41'0 0.0
2017-Dec-27 01:30N 35°27' E 139°41'0 0.0
2017-Dec-27 01:00N 35°27' E 139°41'0 0.0
2017-Dec-27 00:30N 35°27' E 139°41'0 0.0
2017-Dec-27 00:00N 35°27' E 139°41'0 0.0
2017-Dec-26 23:30N 35°27' E 139°41'0 0.0
2017-Dec-26 23:00N 35°27' E 139°41'0 0.0
2017-Dec-26 22:30N 35°27' E 139°41'0 0.1
2017-Dec-26 22:00N 35°27' E 139°41'3 5.0
2017-Dec-26 21:30N 35°25' E 139°43'4 7.4
2017-Dec-26 21:01N 35°21' E 139°43'4 7.4
2017-Dec-26 20:30N 35°18' E 139°45'5 9.3
2017-Dec-26 20:00N 35°14' E 139°47'5 9.7
2017-Dec-26 19:30N 35°09' E 139°46'2 3.3
2017-Dec-26 19:01N 35°07' E 139°46'2 4.3
2017-Dec-26 18:30N 35°05' E 139°45'  
Track history (hours):
 
Tides and Currents Weather Stations Pressure Air Temp Water Temp Dewpoint Dewpoint Depression Visibility Wind Speed Wind Dir Waves Ship Positions

Andromeda Spirit

Last reported at 2018-Jan-05 18:23 UTC. Time now 2018-Jan-18 06:18 UTC.
Position N 01°26' E 103°13'.
Warning: this ship's position is 12 days out of date.

Length 180 m; draft 8.8 m.

Type: Cargo ship. MMSI: 372945000.

Date/timePositionNaut miles runAvg speedWind from/ knotsBaromVisibWave heightAir tempDewpointWater temp
2018-Jan-05 18:23N 01°26' E 103°13'612.4
2018-Jan-05 17:57N 01°22' E 103°16'512.1
2018-Jan-05 17:30N 01°18' E 103°20'612.1
2018-Jan-05 17:00N 01°14' E 103°25'612.5
2018-Jan-05 16:30N 01°13' E 103°31'713.6
2018-Jan-05 16:01N 01°12' E 103°38'3 6.2
2018-Jan-05 15:30N 01°13' E 103°41'510.4
2018-Jan-05 15:00N 01°16' E 103°45'1 1.9
2018-Jan-05 14:28N 01°17' E 103°45'0 0.0
2018-Jan-05 13:58N 01°17' E 103°45'0 0.0
2018-Jan-05 13:28N 01°17' E 103°45'0 0.0
2018-Jan-05 12:55N 01°17' E 103°45'0 0.0
2018-Jan-05 12:28N 01°17' E 103°45'0 0.0
2018-Jan-05 11:58N 01°17' E 103°45'0 0.0
2018-Jan-05 11:28N 01°17' E 103°45'0 0.0
2018-Jan-05 10:58N 01°17' E 103°45'0 0.0
2018-Jan-05 10:28N 01°17' E 103°45'0 0.0
2018-Jan-05 09:52N 01°17' E 103°45'0 0.0
2018-Jan-05 09:25N 01°17' E 103°45'0 0.0
2018-Jan-05 08:58N 01°17' E 103°45'0 0.0
2018-Jan-05 08:28N 01°17' E 103°45'0 0.0
2018-Jan-05 07:58N 01°17' E 103°45'0 0.0
2018-Jan-05 07:30N 01°17' E 103°45'0 0.0
2018-Jan-05 07:00N 01°17' E 103°45'1 1.6
2018-Jan-05 06:30N 01°16' E 103°45'510.2
2018-Jan-05 06:00N 01°13' E 103°49'5 9.9
2018-Jan-05 05:30N 01°14' E 103°54'2 3.3
2018-Jan-05 05:00N 01°14' E 103°55'2 4.7
2018-Jan-05 04:30N 01°15' E 103°58'3 6.4
2018-Jan-05 03:59N 01°16' E 104°01'3 7.0
2018-Jan-05 03:29N 01°16' E 104°04'  
2017-Dec-29 13:06N 32°58' E 132°10'317.8
2017-Dec-29 12:56N 33°01' E 132°09'1017.8
2017-Dec-29 12:22N 33°10' E 132°04'618.1
2017-Dec-29 12:01N 33°16' E 132°00'1018.6
2017-Dec-29 11:30N 33°24' E 131°55'918.1
2017-Dec-29 11:01N 33°32' E 131°51'917.9
2017-Dec-29 10:30N 33°40' E 131°45'815.7
2017-Dec-29 10:01N 33°46' E 131°39'816.8
2017-Dec-29 09:30N 33°47' E 131°29'816.0
2017-Dec-29 09:00N 33°48' E 131°19'815.5
2017-Dec-29 08:31N 33°49' E 131°10'611.8
2017-Dec-29 08:00N 33°49' E 131°03'3 5.0
2017-Dec-29 07:26N 33°47' E 131°01'0 0.0
2017-Dec-29 06:59N 33°47' E 131°01'0 0.0
2017-Dec-29 06:29N 33°47' E 131°01'0 0.0
2017-Dec-29 05:59N 33°47' E 131°01'0 0.0
2017-Dec-29 05:29N 33°47' E 131°01'0 0.0
2017-Dec-29 04:59N 33°47' E 131°01'0 0.0
2017-Dec-29 04:29N 33°47' E 131°01'0 0.0
2017-Dec-29 03:59N 33°47' E 131°01'0 0.0
2017-Dec-29 03:29N 33°47' E 131°01'0 0.0
2017-Dec-29 02:59N 33°47' E 131°01'0 0.0
2017-Dec-29 02:29N 33°47' E 131°01'0 0.0
2017-Dec-29 01:59N 33°47' E 131°01'0 0.0
2017-Dec-29 01:29N 33°47' E 131°01'0 0.0
2017-Dec-29 00:59N 33°47' E 131°01'0 0.0
2017-Dec-29 00:29N 33°47' E 131°01'0 0.0
2017-Dec-28 23:56N 33°47' E 131°01'0 0.0
2017-Dec-28 23:29N 33°47' E 131°01'0 0.0
2017-Dec-28 22:59N 33°47' E 131°01'0 0.0
2017-Dec-28 22:30N 33°47' E 131°01'0 1.0
2017-Dec-28 22:00N 33°47' E 131°01'5 9.2
2017-Dec-28 21:30N 33°49' E 131°05'4 8.7
2017-Dec-28 21:00N 33°50' E 131°11'611.8
2017-Dec-28 20:30N 33°51' E 131°18'611.9
2017-Dec-28 20:00N 33°50' E 131°25'612.5
2017-Dec-28 19:30N 33°49' E 131°32'613.0
2017-Dec-28 19:00N 33°47' E 131°40'611.7
2017-Dec-28 18:30N 33°43' E 131°45'612.8
2017-Dec-28 18:00N 33°38' E 131°49'713.4
2017-Dec-28 17:30N 33°32' E 131°52'714.1
2017-Dec-28 17:00N 33°25' E 131°56'715.0
2017-Dec-28 16:30N 33°19' E 132°00'814.8
2017-Dec-28 15:58N 33°12' E 132°06'32013.1
2017-Dec-27 15:28N 33°55' E 138°27'714.0
2017-Dec-27 15:00N 33°57' E 138°34'913.1
2017-Dec-27 14:20N 33°60' E 138°44'512.2
2017-Dec-27 13:57N 34°02' E 138°50'1711.6
2017-Dec-27 12:28N 34°07' E 139°09'511.2
2017-Dec-27 12:00N 34°09' E 139°15'713.9
2017-Dec-27 11:28N 34°16' E 139°20'715.5
2017-Dec-27 11:00N 34°22' E 139°23'815.9
2017-Dec-27 10:30N 34°30' E 139°26'713.9
2017-Dec-27 10:00N 34°36' E 139°29'714.4
2017-Dec-27 09:30N 34°43' E 139°32'715.0
2017-Dec-27 09:00N 34°50' E 139°36'815.7
2017-Dec-27 08:30N 34°57' E 139°39'815.8
2017-Dec-27 08:00N 35°04' E 139°43'714.3
2017-Dec-27 07:31N 35°11' E 139°45'510.2
2017-Dec-27 07:00N 35°17' E 139°45'612.6
2017-Dec-27 06:31N 35°22' E 139°42'5 9.5
2017-Dec-27 06:00N 35°27' E 139°41'0 0.3
2017-Dec-27 05:30N 35°27' E 139°41'0 0.0
2017-Dec-27 05:00N 35°27' E 139°41'0 0.0
2017-Dec-27 04:30N 35°27' E 139°41'0 0.0
2017-Dec-27 04:00N 35°27' E 139°41'0 0.0
2017-Dec-27 03:30N 35°27' E 139°41'0 0.0
2017-Dec-27 03:00N 35°27' E 139°41'0 0.0
2017-Dec-27 02:30N 35°27' E 139°41'0 0.0
2017-Dec-27 02:00N 35°27' E 139°41'0 0.0
2017-Dec-27 01:30N 35°27' E 139°41'0 0.0
2017-Dec-27 01:00N 35°27' E 139°41'0 0.0
2017-Dec-27 00:30N 35°27' E 139°41'0 0.0
2017-Dec-27 00:00N 35°27' E 139°41'0 0.0
2017-Dec-26 23:30N 35°27' E 139°41'0 0.0
2017-Dec-26 23:00N 35°27' E 139°41'0 0.0
2017-Dec-26 22:30N 35°27' E 139°41'0 0.1
2017-Dec-26 22:00N 35°27' E 139°41'3 5.0
2017-Dec-26 21:30N 35°25' E 139°43'4 7.4
2017-Dec-26 21:01N 35°21' E 139°43'4 7.4
2017-Dec-26 20:30N 35°18' E 139°45'5 9.3
2017-Dec-26 20:00N 35°14' E 139°47'5 9.7
2017-Dec-26 19:30N 35°09' E 139°46'2 3.3
2017-Dec-26 19:01N 35°07' E 139°46'2 4.3
2017-Dec-26 18:30N 35°05' E 139°45'  

Dump ship's entire track history